Time;durP1;ratioP1;P1;durP2;ratioP2;P2;SDS_P1;SDS_P2;PMS_P1;PMS_P2;Temp;Humidity;BMP_temperature;BMP_pressure;BME280_temperature;BME280_humidity;BME280_pressure;Samples;Min_cycle;Max_cycle;Signal;HPM_P1;HPM_P2
2022/05/17 00:00:24;;;;;;;9.93;8.23;;;13.30;99.90;;;;;;5114754;28;20160;-72
2022/05/17 00:02:49;;;;;;;8.70;7.80;;;13.30;99.90;;;;;;5115049;28;20548;-72
2022/05/17 00:05:15;;;;;;;10.50;8.85;;;13.30;99.90;;;;;;5096735;28;20208;-72
2022/05/17 00:07:41;;;;;;;11.50;8.48;;;13.30;99.90;;;;;;5115262;28;20249;-72
2022/05/17 00:10:07;;;;;;;11.75;9.43;;;13.30;99.90;;;;;;5096881;28;20172;-72
2022/05/17 00:12:33;;;;;;;15.73;10.40;;;13.30;99.90;;;;;;5114522;28;20169;-72
2022/05/17 00:14:59;;;;;;;12.48;9.52;;;13.30;99.90;;;;;;5115088;28;20243;-72
2022/05/17 00:17:25;;;;;;;12.90;9.00;;;13.30;99.90;;;;;;5096313;28;20300;-72
2022/05/17 00:19:51;;;;;;;13.82;9.55;;;13.20;99.90;;;;;;5114596;28;20226;-72
2022/05/17 00:22:17;;;;;;;14.50;9.23;;;13.30;99.90;;;;;;5114782;28;20179;-72
2022/05/17 00:24:43;;;;;;;10.68;8.77;;;13.30;99.90;;;;;;5114439;28;20177;-72
2022/05/17 00:27:09;;;;;;;17.00;9.63;;;13.30;99.90;;;;;;5096367;28;20200;-72
2022/05/17 00:29:35;;;;;;;12.68;9.13;;;13.20;99.90;;;;;;5096073;28;20667;-72
2022/05/17 00:32:00;;;;;;;11.93;9.43;;;13.20;99.90;;;;;;5114441;28;20702;-72
2022/05/17 00:34:27;;;;;;;12.82;9.38;;;13.20;99.90;;;;;;5114326;28;20180;-72
2022/05/17 00:36:53;;;;;;;14.13;9.55;;;13.20;99.90;;;;;;5114244;28;20184;-72
2022/05/17 00:39:19;;;;;;;11.93;9.73;;;13.10;99.90;;;;;;5114308;28;20232;-72
2022/05/17 00:41:45;;;;;;;11.63;9.43;;;13.10;99.90;;;;;;5114196;28;20255;-72
2022/05/17 00:47:05;;;;;;;14.00;9.13;;;13.00;99.90;;;;;;5114381;28;20246;-72
2022/05/17 00:49:37;;;;;;;12.30;9.35;;;13.00;99.90;;;;;;5114381;28;20152;-72
2022/05/17 00:52:09;;;;;;;13.68;10.13;;;13.00;99.90;;;;;;5114463;28;20164;-72
2022/05/17 00:54:36;;;;;;;11.73;9.68;;;13.00;99.90;;;;;;5114597;28;20244;-72
2022/05/17 00:57:16;;;;;;;19.75;9.93;;;13.00;99.90;;;;;;5095903;28;20200;-72
2022/05/17 00:59:42;;;;;;;14.32;8.80;;;13.00;99.90;;;;;;5113789;28;20153;-72
2022/05/17 01:02:09;;;;;;;15.98;9.70;;;13.00;99.90;;;;;;5114161;28;20200;-72
2022/05/17 01:04:36;;;;;;;11.05;9.25;;;13.00;99.90;;;;;;5113900;28;20168;-72
2022/05/17 01:07:13;;;;;;;11.68;9.68;;;13.00;99.90;;;;;;5095636;28;20198;-72
2022/05/17 01:09:39;;;;;;;14.75;9.48;;;13.00;99.90;;;;;;5095617;28;20218;-72
2022/05/17 01:12:06;;;;;;;14.02;9.07;;;13.00;99.90;;;;;;5117201;28;20248;-72
2022/05/17 01:17:16;;;;;;;13.25;9.52;;;13.00;99.90;;;;;;5117739;28;20203;-72
2022/05/17 01:19:43;;;;;;;34.85;11.18;;;12.90;99.90;;;;;;5099418;28;20633;-71
2022/05/17 01:22:10;;;;;;;20.38;10.80;;;12.90;99.90;;;;;;5099601;28;20176;-72
2022/05/17 01:24:36;;;;;;;15.45;10.30;;;12.90;99.90;;;;;;5117598;28;20221;-72
2022/05/17 01:27:10;;;;;;;16.60;11.25;;;13.00;99.90;;;;;;5099272;28;20188;-72
2022/05/17 01:29:40;;;;;;;15.90;10.23;;;13.00;99.90;;;;;;5117462;28;20164;-72
2022/05/17 01:32:09;;;;;;;14.02;9.77;;;13.00;99.90;;;;;;5117503;28;20263;-72
2022/05/17 01:34:35;;;;;;;14.45;10.55;;;13.00;99.90;;;;;;5117517;28;20582;-72
2022/05/17 01:37:02;;;;;;;15.30;9.60;;;13.00;99.90;;;;;;5117550;28;20245;-72
2022/05/17 01:39:28;;;;;;;14.38;9.10;;;13.00;99.90;;;;;;5117355;28;20181;-72
2022/05/17 01:41:54;;;;;;;15.68;9.65;;;13.00;99.90;;;;;;5117349;28;20629;-72
2022/05/17 01:44:20;;;;;;;15.90;10.10;;;13.00;99.90;;;;;;5117017;28;20168;-72
2022/05/17 01:46:46;;;;;;;18.80;11.25;;;13.00;99.90;;;;;;5098725;28;20216;-72
2022/05/17 01:49:11;;;;;;;18.95;11.00;;;13.00;99.90;;;;;;5117479;28;20247;-72
2022/05/17 01:51:37;;;;;;;24.48;11.15;;;13.00;99.90;;;;;;5117324;28;20225;-72
2022/05/17 01:54:03;;;;;;;11.32;10.13;;;13.00;99.90;;;;;;5098626;28;20180;-72
2022/05/17 01:56:29;;;;;;;18.33;10.65;;;13.00;99.90;;;;;;5098607;28;20201;-72
2022/05/17 01:58:54;;;;;;;21.98;11.55;;;12.90;99.90;;;;;;5116950;28;20208;-72
2022/05/17 02:01:20;;;;;;;26.80;12.30;;;12.90;99.90;;;;;;5117045;28;20175;-73
2022/05/17 02:03:46;;;;;;;21.95;11.95;;;12.90;99.90;;;;;;5098497;28;20261;-72
2022/05/17 02:06:11;;;;;;;18.17;12.32;;;12.90;99.90;;;;;;5116450;28;20237;-72
2022/05/17 02:08:37;;;;;;;22.75;12.07;;;12.90;99.90;;;;;;5116686;28;20177;-72
2022/05/17 02:11:03;;;;;;;17.50;12.80;;;12.90;99.90;;;;;;5098483;28;20600;-72
2022/05/17 02:13:30;;;;;;;25.48;13.70;;;12.90;99.90;;;;;;5116418;28;20203;-72
2022/05/17 02:15:55;;;;;;;24.75;12.43;;;12.80;99.90;;;;;;5098285;28;20177;-72
2022/05/17 02:18:22;;;;;;;21.67;12.63;;;12.80;99.90;;;;;;5117114;28;20188;-72
2022/05/17 02:20:48;;;;;;;23.33;13.25;;;12.80;99.90;;;;;;5115163;28;20192;-72
2022/05/17 02:23:13;;;;;;;27.33;13.30;;;12.80;99.90;;;;;;5115633;28;20176;-72
2022/05/17 02:25:39;;;;;;;20.08;13.10;;;12.80;99.90;;;;;;5116308;28;20207;-72
2022/05/17 02:28:07;;;;;;;18.35;12.82;;;12.70;99.90;;;;;;5097681;28;20204;-72
2022/05/17 02:30:33;;;;;;;19.67;13.52;;;12.80;99.90;;;;;;5116292;28;20182;-72
2022/05/17 02:32:59;;;;;;;20.60;14.10;;;12.80;99.90;;;;;;5116239;28;20179;-72
2022/05/17 02:35:25;;;;;;;15.25;12.63;;;12.80;99.90;;;;;;5116314;28;20217;-72
2022/05/17 02:37:50;;;;;;;17.90;12.82;;;12.90;99.90;;;;;;5097810;28;20204;-72
2022/05/17 02:40:16;;;;;;;18.17;13.70;;;13.00;99.90;;;;;;5116162;28;20183;-72
2022/05/17 02:42:42;;;;;;;15.93;13.63;;;13.00;99.90;;;;;;5116321;28;20184;-72
2022/05/17 02:45:08;;;;;;;27.38;15.40;;;13.00;99.90;;;;;;5115687;28;20196;-72
2022/05/17 02:47:34;;;;;;;23.27;14.15;;;13.00;99.90;;;;;;5115810;28;20192;-72
2022/05/17 02:50:00;;;;;;;24.92;14.63;;;13.00;99.90;;;;;;5116493;28;20177;-72
2022/05/17 02:52:26;;;;;;;23.88;14.15;;;13.00;99.90;;;;;;5097550;28;20183;-72
2022/05/17 02:54:52;;;;;;;27.00;14.32;;;13.00;99.90;;;;;;5097557;28;20255;-72
2022/05/17 02:57:17;;;;;;;17.42;13.93;;;13.00;99.90;;;;;;5115846;28;20188;-73
2022/05/17 02:59:43;;;;;;;19.67;13.93;;;12.90;99.90;;;;;;5097331;28;20644;-72
2022/05/17 03:02:09;;;;;;;26.02;15.32;;;12.90;99.90;;;;;;5116019;28;20175;-73
2022/05/17 03:04:34;;;;;;;31.08;14.40;;;12.80;99.90;;;;;;5097383;28;20281;-72
2022/05/17 03:07:00;;;;;;;23.23;14.48;;;12.80;99.90;;;;;;5097229;28;20212;-72
2022/05/17 03:09:26;;;;;;;22.85;14.35;;;12.80;99.90;;;;;;5097253;28;20188;-72
2022/05/17 03:11:52;;;;;;;25.10;14.75;;;12.80;99.90;;;;;;5097614;28;20661;-72
2022/05/17 03:14:18;;;;;;;19.13;13.50;;;12.70;99.90;;;;;;5115248;28;20184;-72
2022/05/17 03:16:44;;;;;;;41.17;16.48;;;12.70;99.90;;;;;;5114206;28;20196;-72
2022/05/17 03:19:10;;;;;;;25.38;14.43;;;12.70;99.90;;;;;;5115481;28;20176;-72
2022/05/17 03:21:36;;;;;;;16.90;13.63;;;12.60;99.90;;;;;;5115665;28;20638;-72
2022/05/17 03:24:03;;;;;;;32.53;15.77;;;12.70;99.90;;;;;;5115372;28;20251;-72
2022/05/17 03:26:31;;;;;;;32.42;15.77;;;12.50;99.90;;;;;;5115044;28;20281;-72
2022/05/17 03:29:00;;;;;;;32.38;15.60;;;12.60;99.90;;;;;;5096691;28;20518;-72
2022/05/17 03:31:26;;;;;;;69.82;19.63;;;12.60;99.90;;;;;;5115701;28;20637;-72
2022/05/17 03:33:53;;;;;;;28.85;16.40;;;12.50;99.90;;;;;;5114500;28;20247;-72
2022/05/17 03:36:19;;;;;;;72.72;18.85;;;12.60;99.90;;;;;;5114566;28;20179;-72
2022/05/17 03:38:45;;;;;;;31.45;17.27;;;12.60;99.90;;;;;;5096655;28;20594;-72
2022/05/17 03:41:10;;;;;;;56.55;18.40;;;12.50;99.90;;;;;;5115079;28;20177;-72
2022/05/17 03:43:36;;;;;;;53.10;19.47;;;12.50;99.90;;;;;;5096479;28;20181;-72
2022/05/17 03:46:02;;;;;;;65.95;21.38;;;12.60;99.90;;;;;;5115395;28;20573;-72
2022/05/17 03:48:29;;;;;;;58.40;20.85;;;12.60;99.90;;;;;;5115042;28;20279;-72
2022/05/17 03:50:55;;;;;;;54.00;20.27;;;12.60;99.90;;;;;;5113585;28;20168;-72
2022/05/17 03:53:21;;;;;;;55.92;20.70;;;12.60;99.90;;;;;;5114925;28;20204;-72
2022/05/17 03:55:47;;;;;;;69.65;22.75;;;12.60;99.90;;;;;;5114646;28;20192;-72
2022/05/17 03:58:13;;;;;;;51.37;21.73;;;12.50;99.90;;;;;;5114441;28;20245;-71
2022/05/17 04:00:39;;;;;;;53.17;21.88;;;12.40;99.90;;;;;;5114752;28;20200;-72
2022/05/17 04:03:05;;;;;;;39.67;22.27;;;12.40;99.90;;;;;;5114806;28;20168;-72
2022/05/17 04:05:30;;;;;;;75.70;24.20;;;12.50;99.90;;;;;;5114445;28;20648;-72
2022/05/17 04:07:56;;;;;;;65.87;23.20;;;12.40;99.90;;;;;;5096685;28;20336;-71
2022/05/17 04:10:22;;;;;;;53.67;22.50;;;12.40;99.90;;;;;;5114760;28;20160;-72
2022/05/17 04:12:49;;;;;;;62.50;23.40;;;12.40;99.90;;;;;;5114368;28;20176;-73
2022/05/17 04:15:18;;;;;;;43.07;22.20;;;12.50;99.90;;;;;;5096267;28;20566;-72
2022/05/17 04:17:44;;;;;;;39.23;21.50;;;12.60;99.90;;;;;;5114826;28;20196;-72
2022/05/17 04:20:12;;;;;;;53.33;22.20;;;12.60;99.90;;;;;;5096121;28;20179;-72
2022/05/17 04:22:43;;;;;;;34.17;22.33;;;12.60;99.90;;;;;;5114568;28;20511;-72
2022/05/17 04:25:09;;;;;;;48.33;23.07;;;12.60;99.90;;;;;;5096517;28;20200;-72
2022/05/17 04:27:35;;;;;;;44.83;22.93;;;12.70;99.90;;;;;;5096161;28;20199;-73
2022/05/17 04:30:01;;;;;;;65.10;22.95;;;12.60;99.90;;;;;;5096057;28;20606;-72
2022/05/17 04:32:27;;;;;;;47.10;23.30;;;12.60;99.90;;;;;;5096186;28;20266;-72
2022/05/17 04:34:53;;;;;;;49.50;23.27;;;12.50;99.90;;;;;;5096376;28;20177;-72
2022/05/17 04:37:18;;;;;;;43.93;23.63;;;12.50;99.90;;;;;;5096038;28;20660;-72
2022/05/17 04:39:44;;;;;;;63.80;24.47;;;12.60;99.90;;;;;;5114461;28;20617;-72
2022/05/17 04:42:10;;;;;;;53.10;24.23;;;12.70;99.90;;;;;;5115256;28;20164;-72
2022/05/17 04:44:36;;;;;;;74.10;24.33;;;12.60;99.90;;;;;;5114899;28;20219;-72
2022/05/17 04:47:02;;;;;;;55.67;23.47;;;12.50;99.90;;;;;;5118087;28;20215;-72
2022/05/17 04:49:27;;;;;;;58.60;24.87;;;12.60;99.90;;;;;;5119321;28;20168;-72
2022/05/17 04:51:53;;;;;;;45.15;25.08;;;12.60;99.90;;;;;;5122059;28;20180;-75
2022/05/17 04:54:19;;;;;;;47.97;25.87;;;12.60;99.90;;;;;;5121907;28;20687;-73
2022/05/17 04:56:45;;;;;;;51.88;25.05;;;12.70;99.90;;;;;;5121507;28;20188;-73
2022/05/17 04:59:10;;;;;;;49.57;25.50;;;12.70;99.90;;;;;;5104477;28;20225;-72
2022/05/17 05:01:36;;;;;;;56.23;24.73;;;12.60;99.90;;;;;;5104515;28;20202;-73
2022/05/17 05:04:02;;;;;;;40.17;23.20;;;12.70;99.90;;;;;;5121599;28;20157;-73
2022/05/17 05:06:28;;;;;;;42.70;24.43;;;12.80;99.90;;;;;;5101635;28;20332;-73
2022/05/17 05:08:54;;;;;;;42.50;24.77;;;12.70;99.90;;;;;;5118573;28;20640;-72
2022/05/17 05:11:20;;;;;;;51.75;27.25;;;12.90;99.90;;;;;;5100041;28;20180;-73
2022/05/17 05:13:46;;;;;;;55.80;27.42;;;12.80;99.90;;;;;;5117971;28;20267;-72
2022/05/17 05:16:14;;;;;;;51.72;27.40;;;12.80;99.90;;;;;;5099723;28;20272;-72
2022/05/17 05:18:40;;;;;;;55.37;28.30;;;12.90;99.90;;;;;;5118002;28;20190;-72
2022/05/17 05:21:12;;;;;;;53.97;29.37;;;12.90;99.90;;;;;;5117826;28;20187;-72
2022/05/17 05:23:40;;;;;;;64.55;29.17;;;12.90;99.90;;;;;;5118098;28;20244;-72
2022/05/17 05:26:07;;;;;;;59.47;29.70;;;13.00;99.90;;;;;;5099494;28;20552;-72
2022/05/17 05:28:33;;;;;;;59.90;30.67;;;13.00;99.90;;;;;;5116549;28;20192;-72
2022/05/17 05:31:00;;;;;;;64.93;30.48;;;13.00;99.90;;;;;;5118769;28;20169;-72
2022/05/17 05:33:26;;;;;;;59.15;29.92;;;13.10;99.90;;;;;;5100410;28;20255;-72
2022/05/17 05:35:53;;;;;;;76.68;31.17;;;13.00;99.90;;;;;;5118364;28;20176;-72
2022/05/17 05:38:19;;;;;;;57.70;29.02;;;13.10;99.90;;;;;;5117553;28;20196;-72
2022/05/17 05:40:44;;;;;;;73.90;31.23;;;13.20;99.90;;;;;;5099249;28;20183;-72
2022/05/17 05:43:10;;;;;;;81.53;32.50;;;13.20;99.90;;;;;;5099192;28;20183;-72
2022/05/17 05:45:36;;;;;;;66.97;31.98;;;13.20;99.90;;;;;;5117019;28;20200;-72
2022/05/17 05:48:02;;;;;;;70.88;32.67;;;13.30;99.90;;;;;;5117255;28;20193;-72
2022/05/17 05:50:28;;;;;;;67.90;30.33;;;13.40;99.90;;;;;;5117408;28;20171;-72
2022/05/17 05:53:20;;;;;;;68.68;33.83;;;13.40;99.90;;;;;;5117557;28;20168;-72
2022/05/17 05:55:50;;;;;;;67.60;32.08;;;13.60;99.90;;;;;;5114506;28;20656;-72
2022/05/17 05:58:17;;;;;;;65.40;32.58;;;13.70;99.90;;;;;;5098046;28;20252;-72
2022/05/17 06:00:43;;;;;;;68.45;33.42;;;13.80;99.90;;;;;;5115850;28;20181;-72
2022/05/17 06:03:08;;;;;;;64.20;32.90;;;13.90;99.90;;;;;;5117215;28;20186;-72
2022/05/17 06:05:36;;;;;;;64.50;33.33;;;14.00;99.90;;;;;;5098904;28;20215;-72
2022/05/17 06:08:02;;;;;;;64.72;33.88;;;14.00;99.90;;;;;;5099036;28;20288;-72
2022/05/17 06:10:28;;;;;;;52.17;29.95;;;14.10;99.90;;;;;;5117534;28;20606;-72
2022/05/17 06:12:54;;;;;;;57.70;30.83;;;14.20;99.90;;;;;;5115873;28;20192;-72
2022/05/17 06:15:20;;;;;;;58.28;32.58;;;14.30;99.90;;;;;;5117317;28;20722;-72
2022/05/17 06:17:46;;;;;;;62.10;32.42;;;14.40;99.90;;;;;;5098978;28;20742;-72
2022/05/17 06:20:12;;;;;;;54.80;30.67;;;14.30;99.90;;;;;;5117551;28;20172;-72
2022/05/17 06:22:38;;;;;;;54.03;28.88;;;14.20;99.90;;;;;;5118140;28;20191;-72
2022/05/17 06:25:06;;;;;;;50.97;29.02;;;14.30;99.90;;;;;;5100475;28;20172;-72
2022/05/17 06:27:31;;;;;;;51.05;29.45;;;14.40;99.90;;;;;;5117478;28;20612;-72
2022/05/17 06:29:57;;;;;;;52.20;30.17;;;14.50;99.90;;;;;;5099204;28;20169;-72
2022/05/17 06:32:23;;;;;;;44.92;27.27;;;14.60;99.90;;;;;;5117576;28;20543;-72
2022/05/17 06:34:49;;;;;;;46.10;27.83;;;14.70;99.90;;;;;;5117409;28;20168;-72
2022/05/17 06:37:15;;;;;;;49.05;28.00;;;14.80;99.90;;;;;;5116984;28;20184;-72
2022/05/17 06:39:42;;;;;;;45.20;28.50;;;14.80;99.90;;;;;;5117148;28;20196;-72
2022/05/17 06:42:08;;;;;;;49.17;27.88;;;14.80;99.90;;;;;;5098184;28;20739;-72
2022/05/17 06:44:36;;;;;;;39.55;24.45;;;14.70;99.90;;;;;;5116408;28;20177;-72
2022/05/17 06:47:02;;;;;;;42.47;25.95;;;14.90;99.90;;;;;;5117010;28;20233;-72
2022/05/17 06:49:28;;;;;;;43.40;27.30;;;15.10;99.90;;;;;;5098296;28;20262;-72
2022/05/17 06:51:53;;;;;;;42.78;26.65;;;15.20;99.90;;;;;;5116525;28;20175;-72
2022/05/17 06:54:19;;;;;;;33.72;23.02;;;15.40;99.90;;;;;;5097800;28;20176;-72
2022/05/17 06:56:45;;;;;;;38.65;25.05;;;15.50;99.90;;;;;;5114776;28;20551;-72
2022/05/17 06:59:11;;;;;;;38.08;23.50;;;15.60;99.90;;;;;;5115587;28;20521;-72
2022/05/17 07:01:36;;;;;;;44.50;24.58;;;15.70;99.90;;;;;;5116026;28;20179;-72
2022/05/17 07:04:02;;;;;;;34.40;23.58;;;15.70;99.90;;;;;;5116080;28;20632;-72
2022/05/17 07:06:28;;;;;;;31.10;21.13;;;15.70;99.90;;;;;;5115723;28;20245;-72
2022/05/17 07:08:54;;;;;;;33.05;21.13;;;15.80;99.90;;;;;;5115287;28;20176;-72
2022/05/17 07:14:04;;;;;;;32.20;20.10;;;16.00;99.90;;;;;;5115076;28;20662;-72
2022/05/17 07:16:30;;;;;;;32.30;19.17;;;16.00;99.90;;;;;;5115544;28;20279;-72
2022/05/17 07:18:56;;;;;;;26.60;17.85;;;16.20;99.90;;;;;;5115713;28;20255;-72
2022/05/17 07:21:22;;;;;;;30.38;19.75;;;16.30;99.90;;;;;;5115504;28;20211;-72
2022/05/17 07:23:48;;;;;;;31.65;19.83;;;16.50;99.90;;;;;;5097001;28;20229;-72
2022/05/17 07:26:15;;;;;;;31.05;21.30;;;16.60;99.90;;;;;;5115482;28;20192;-72
2022/05/17 07:28:44;;;;;;;36.75;21.83;;;16.70;99.90;;;;;;5097005;28;20213;-72
2022/05/17 07:31:11;;;;;;;30.75;19.95;;;16.70;99.90;;;;;;5115319;28;20633;-72
2022/05/17 07:33:37;;;;;;;37.22;22.40;;;16.70;99.90;;;;;;5097475;28;20575;-72
2022/05/17 07:36:04;;;;;;;34.33;20.55;;;16.90;99.90;;;;;;5115411;28;20173;-72
2022/05/17 07:38:30;;;;;;;29.38;19.27;;;16.90;99.90;;;;;;5096593;28;20286;-72
2022/05/17 07:40:55;;;;;;;29.05;18.15;;;17.00;99.90;;;;;;5114992;28;20176;-72
2022/05/17 07:43:21;;;;;;;31.13;17.65;;;17.10;99.90;;;;;;5096749;28;20553;-72
2022/05/17 07:45:49;;;;;;;28.20;17.02;;;17.10;99.90;;;;;;5114713;28;20675;-72
2022/05/17 07:48:21;;;;;;;24.38;15.82;;;17.30;99.90;;;;;;5096613;28;20242;-72
2022/05/17 07:50:46;;;;;;;22.27;14.05;;;17.30;99.90;;;;;;5113741;28;20180;-72
2022/05/17 07:53:14;;;;;;;19.30;13.00;;;17.40;99.90;;;;;;5115674;28;20173;-71
2022/05/17 07:55:42;;;;;;;22.13;14.05;;;17.50;99.90;;;;;;5096988;28;20175;-72
2022/05/17 07:58:09;;;;;;;18.40;12.13;;;17.70;99.90;;;;;;5115075;28;20215;-72
2022/05/17 08:00:36;;;;;;;16.92;10.20;;;17.80;99.90;;;;;;5096255;28;20259;-72
2022/05/17 08:03:04;;;;;;;13.15;8.90;;;18.10;99.90;;;;;;5114535;28;20256;-72
2022/05/17 08:05:31;;;;;;;14.10;9.07;;;18.30;99.90;;;;;;5114685;28;20295;-72
2022/05/17 08:07:57;;;;;;;16.15;9.55;;;18.30;99.90;;;;;;5114709;28;20196;-72
2022/05/17 08:10:23;;;;;;;15.90;9.52;;;18.30;99.90;;;;;;5114939;28;20543;-72
2022/05/17 08:12:50;;;;;;;14.27;8.95;;;18.30;99.90;;;;;;5114301;28;20169;-72
2022/05/17 08:15:17;;;;;;;12.18;8.88;;;18.30;99.90;;;;;;5114535;28;20163;-72
2022/05/17 08:17:42;;;;;;;15.40;8.90;;;18.40;99.90;;;;;;5114271;28;20192;-72
2022/05/17 08:20:12;;;;;;;15.68;8.35;;;18.30;99.90;;;;;;5095429;28;20179;-72
2022/05/17 08:22:40;;;;;;;16.77;9.07;;;18.40;99.90;;;;;;5114517;28;20226;-72
2022/05/17 08:27:51;;;;;;;10.85;8.07;;;18.20;99.90;;;;;;5114674;28;20249;-72
2022/05/17 08:30:20;;;;;;;16.58;8.45;;;18.20;99.90;;;;;;5113773;28;20247;-72
2022/05/17 08:35:41;;;;;;;18.17;8.23;;;17.90;99.90;;;;;;5114064;28;20241;-72
2022/05/17 08:38:07;;;;;;;15.13;8.23;;;17.90;99.90;;;;;;5095717;28;20231;-72
2022/05/17 08:40:39;;;;;;;13.75;7.35;;;17.90;99.90;;;;;;5095824;28;20180;-72
2022/05/17 08:43:04;;;;;;;14.15;8.10;;;18.00;99.90;;;;;;5095779;28;20180;-72
2022/05/17 08:45:36;;;;;;;13.88;7.88;;;18.00;99.90;;;;;;5113940;28;20199;-72
2022/05/17 08:48:04;;;;;;;13.82;7.40;;;18.20;99.90;;;;;;5114394;28;20237;-72
2022/05/17 08:50:34;;;;;;;12.73;7.35;;;18.30;99.90;;;;;;5114062;28;20207;-72
2022/05/17 08:53:01;;;;;;;12.18;6.07;;;18.40;99.90;;;;;;5114496;28;20149;-71
2022/05/17 08:55:36;;;;;;;15.90;6.47;;;18.60;99.90;;;;;;5114304;28;20204;-71
2022/05/17 08:58:07;;;;;;;9.57;5.20;;;18.80;99.90;;;;;;5114200;28;20188;-72
2022/05/17 09:00:50;;;;;;;12.50;4.60;;;19.00;99.90;;;;;;5113958;28;20161;-72
2022/05/17 09:03:48;;;;;;;12.68;5.05;;;19.20;99.90;;;;;;5095787;28;20176;-72
2022/05/17 09:06:20;;;;;;;10.13;4.47;;;19.30;99.90;;;;;;5100213;28;20208;-72
2022/05/17 09:09:04;;;;;;;7.57;4.60;;;19.40;99.90;;;;;;5114280;28;20211;-72
2022/05/17 09:11:45;;;;;;;8.13;4.30;;;19.50;99.90;;;;;;5114318;28;20161;-72
2022/05/17 09:14:16;;;;;;;9.70;4.18;;;19.50;99.90;;;;;;5095587;28;20203;-72
2022/05/17 09:17:08;;;;;;;11.13;4.78;;;19.50;99.90;;;;;;5113801;28;20191;-72
2022/05/17 09:19:34;;;;;;;11.90;5.07;;;19.50;99.90;;;;;;5100167;28;20189;-72
2022/05/17 09:22:01;;;;;;;7.70;3.80;;;19.50;99.90;;;;;;5095368;28;20177;-72
2022/05/17 09:24:30;;;;;;;10.35;4.18;;;19.50;99.90;;;;;;5113567;28;20202;-72
2022/05/17 09:27:10;;;;;;;11.02;4.18;;;19.60;99.90;;;;;;5095110;28;20394;-72
2022/05/17 09:29:45;;;;;;;6.20;3.33;;;19.60;99.90;;;;;;5113503;28;20646;-72
2022/05/17 09:32:22;;;;;;;12.90;3.90;;;19.60;99.90;;;;;;5096796;28;20168;-72
2022/05/17 09:35:00;;;;;;;8.13;3.47;;;19.50;99.90;;;;;;5117680;28;20149;-72
2022/05/17 09:37:36;;;;;;;7.78;4.50;;;19.60;99.90;;;;;;5098970;28;20196;-72
2022/05/17 09:40:07;;;;;;;8.82;3.63;;;19.70;99.90;;;;;;5099010;28;20210;-72
2022/05/17 09:42:42;;;;;;;7.28;3.97;;;19.70;99.90;;;;;;5099354;28;20523;-72
2022/05/17 09:45:14;;;;;;;10.27;4.25;;;19.90;99.90;;;;;;5116814;28;20188;-72
2022/05/17 09:47:56;;;;;;;7.03;3.90;;;20.00;99.90;;;;;;5116970;28;20679;-71
2022/05/17 09:53:14;;;;;;;11.35;4.78;;;20.10;99.90;;;;;;5117467;28;20160;-71
2022/05/17 09:55:43;;;;;;;9.75;3.83;;;20.10;99.90;;;;;;5116954;28;20259;-69
2022/05/17 09:58:27;;;;;;;5.40;3.13;;;20.10;99.90;;;;;;5116837;28;20196;-70
2022/05/17 10:00:54;;;;;;;7.63;3.33;;;20.00;99.90;;;;;;5098456;28;20164;-72
2022/05/17 10:03:35;;;;;;;6.88;3.38;;;20.10;99.90;;;;;;5098681;28;20203;-71
2022/05/17 10:06:12;;;;;;;8.25;3.72;;;20.00;99.90;;;;;;5117020;28;20196;-71
2022/05/17 10:08:59;;;;;;;6.60;3.30;;;20.10;99.90;;;;;;5098420;28;20179;-72
2022/05/17 10:11:27;;;;;;;7.65;4.10;;;20.20;99.90;;;;;;5117139;28;20160;-72
2022/05/17 10:14:02;;;;;;;10.38;4.32;;;20.20;99.90;;;;;;5116546;28;20185;-72
2022/05/17 10:16:37;;;;;;;7.75;3.72;;;20.20;99.90;;;;;;5116303;28;20648;-72
2022/05/17 10:19:09;;;;;;;8.40;3.83;;;20.30;99.90;;;;;;5098248;28;20179;-72
2022/05/17 10:21:49;;;;;;;8.73;3.45;;;20.20;99.90;;;;;;5116569;28;20153;-72
2022/05/17 10:24:18;;;;;;;6.88;3.05;;;20.40;99.90;;;;;;5098182;28;20164;-72
2022/05/17 10:26:49;;;;;;;6.20;2.80;;;20.70;99.90;;;;;;5116444;28;20211;-73
2022/05/17 10:29:40;;;;;;;7.20;3.50;;;20.90;99.90;;;;;;5098118;28;20629;-72
2022/05/17 10:32:25;;;;;;;6.90;3.28;;;20.80;99.90;;;;;;5098117;28;20176;-72
2022/05/17 10:35:05;;;;;;;8.13;3.50;;;20.80;99.90;;;;;;5098209;28;20171;-72
2022/05/17 10:37:41;;;;;;;6.25;3.70;;;20.90;99.90;;;;;;5097714;28;20245;-72
2022/05/17 10:40:12;;;;;;;9.98;4.22;;;21.00;99.90;;;;;;5097812;28;20195;-72
2022/05/17 10:42:39;;;;;;;6.60;3.38;;;20.90;99.90;;;;;;5097801;28;20256;-72
2022/05/17 10:45:06;;;;;;;8.80;3.70;;;20.90;99.90;;;;;;5096913;28;20180;-72
2022/05/17 10:47:39;;;;;;;9.00;3.30;;;21.00;99.90;;;;;;5116542;28;20196;-72
2022/05/17 10:50:22;;;;;;;5.70;3.22;;;21.00;99.90;;;;;;5097830;28;20164;-72
2022/05/17 10:53:13;;;;;;;8.50;3.53;;;21.20;99.90;;;;;;5097852;28;20163;-72
2022/05/17 10:56:09;;;;;;;7.30;3.30;;;21.40;99.90;;;;;;5097712;28;20236;-72
2022/05/17 10:59:06;;;;;;;5.63;2.90;;;21.30;99.90;;;;;;5115998;28;20197;-72
2022/05/17 11:01:43;;;;;;;7.03;3.55;;;21.40;99.90;;;;;;5097426;28;20161;-72
2022/05/17 11:04:27;;;;;;;6.72;3.20;;;21.40;99.90;;;;;;5097826;28;20165;-72
2022/05/17 11:07:43;;;;;;;6.97;2.70;;;21.40;99.90;;;;;;5097523;28;20215;-72
2022/05/17 11:10:09;;;;;;;6.30;3.03;;;21.50;99.90;;;;;;5055525;28;20214;-72
2022/05/17 11:12:43;;;;;;;6.35;2.90;;;21.70;99.90;;;;;;5115978;28;20176;-74
2022/05/17 11:15:35;;;;;;;6.47;2.83;;;21.80;99.90;;;;;;5115616;28;20175;-72
2022/05/17 11:18:17;;;;;;;5.45;3.22;;;21.90;99.90;;;;;;5097529;28;20204;-72
2022/05/17 11:20:53;;;;;;;7.53;2.58;;;21.90;99.90;;;;;;5115995;28;20700;-72
2022/05/17 11:23:41;;;;;;;6.47;2.72;;;22.10;99.90;;;;;;5117039;28;20166;-72
2022/05/17 11:26:40;;;;;;;6.05;2.88;;;22.30;99.90;;;;;;5098864;28;20188;-73
2022/05/17 11:29:35;;;;;;;5.53;2.70;;;22.40;99.90;;;;;;5117433;28;20184;-72
2022/05/17 11:32:20;;;;;;;4.53;2.45;;;22.60;99.90;;;;;;5116389;28;20173;-72
2022/05/17 11:34:46;;;;;;;7.88;2.70;;;22.70;99.90;;;;;;5097881;28;20221;-71
2022/05/17 11:37:34;;;;;;;5.55;2.67;;;22.80;99.90;;;;;;5097321;28;20608;-73
2022/05/17 11:40:07;;;;;;;6.97;3.17;;;22.90;99.90;;;;;;5097179;28;20187;-72
2022/05/17 11:45:50;;;;;;;11.13;3.15;;;23.10;99.90;;;;;;5114951;28;20192;-73
2022/05/17 11:48:21;;;;;;;3.97;2.53;;;23.10;99.90;;;;;;5115214;28;20211;-71
2022/05/17 11:50:57;;;;;;;5.90;2.53;;;23.10;99.90;;;;;;5115478;28;20259;-71
2022/05/17 11:53:23;;;;;;;4.78;2.60;;;23.20;99.90;;;;;;5115527;28;20176;-71
2022/05/17 11:56:16;;;;;;;6.20;2.92;;;23.30;99.90;;;;;;5114404;28;20172;-71
2022/05/17 11:58:45;;;;;;;4.03;2.38;;;23.30;99.90;;;;;;5115255;28;20542;-71
2022/05/17 12:01:37;;;;;;;8.73;3.13;;;23.40;99.90;;;;;;5096825;28;20180;-71
2022/05/17 12:04:07;;;;;;;6.63;3.38;;;23.30;99.90;;;;;;5092084;28;20180;-71
2022/05/17 12:06:51;;;;;;;5.78;2.70;;;23.20;99.90;;;;;;5115020;28;20196;-71
2022/05/17 12:09:23;;;;;;;5.85;3.22;;;23.10;99.90;;;;;;5115126;28;20186;-71
2022/05/17 12:12:03;;;;;;;7.63;2.92;;;23.10;99.90;;;;;;5097006;28;20309;-71
2022/05/17 12:14:37;;;;;;;6.63;2.85;;;22.90;99.90;;;;;;5115118;28;20184;-71
2022/05/17 12:17:17;;;;;;;6.10;3.10;;;22.80;99.90;;;;;;5096579;28;20198;-71
2022/05/17 12:20:07;;;;;;;9.43;3.20;;;22.70;99.90;;;;;;5115928;28;20164;-71
2022/05/17 12:22:58;;;;;;;5.78;2.85;;;22.50;99.90;;;;;;5116162;28;20157;-72
2022/05/17 12:25:44;;;;;;;7.10;2.72;;;22.40;99.90;;;;;;5115877;28;20191;-72
2022/05/17 12:28:18;;;;;;;6.10;3.00;;;22.40;99.90;;;;;;5115004;28;20192;-72
2022/05/17 12:30:54;;;;;;;8.65;3.38;;;22.30;99.90;;;;;;5115199;28;20185;-71
2022/05/17 12:33:25;;;;;;;6.25;3.05;;;22.20;99.90;;;;;;5115721;28;20641;-72
2022/05/17 12:35:54;;;;;;;6.28;3.30;;;22.20;99.90;;;;;;5115570;28;20710;-72
2022/05/17 12:44:12;;;;;;;9.63;3.20;;;22.10;99.90;;;;;;5115541;28;20206;-71
2022/05/17 12:46:39;;;;;;;7.05;3.40;;;22.10;99.90;;;;;;5096557;28;20208;-72
2022/05/17 12:49:34;;;;;;;8.50;3.22;;;22.10;99.90;;;;;;5115161;28;20161;-71
2022/05/17 12:52:12;;;;;;;5.88;2.80;;;22.00;99.90;;;;;;5093483;28;20191;-71
2022/05/17 12:54:38;;;;;;;6.05;3.17;;;21.90;99.90;;;;;;5097030;28;20255;-71
2022/05/17 12:57:26;;;;;;;5.90;3.03;;;21.80;99.90;;;;;;5115179;28;20237;-71
2022/05/17 13:00:06;;;;;;;4.68;2.55;;;21.80;99.90;;;;;;5097870;28;20173;-71
2022/05/17 13:02:32;;;;;;;6.07;3.17;;;21.80;99.90;;;;;;5097751;28;20241;-71
2022/05/17 13:04:57;;;;;;;10.18;3.45;;;21.80;99.90;;;;;;5097667;28;20639;-71
2022/05/17 13:07:23;;;;;;;7.03;3.33;;;21.80;99.90;;;;;;5098678;28;20212;-71
2022/05/17 13:09:57;;;;;;;5.90;3.03;;;21.70;99.90;;;;;;5100820;28;20200;-71
2022/05/17 13:12:25;;;;;;;8.32;3.15;;;21.70;99.90;;;;;;5101530;28;20255;-72